Time;durP1;ratioP1;P1;durP2;ratioP2;P2;SDS_P1;SDS_P2;PMS_P1;PMS_P2;Temp;Humidity;BMP_temperature;BMP_pressure;BME280_temperature;BME280_humidity;BME280_pressure;Samples;Min_cycle;Max_cycle;Signal;HPM_P1;HPM_P2
2021/10/19 00:00:02;;;;;;;11.88;8.55;;;14.30;81.40;;;;;;5073456;28;20052;-72
2021/10/19 00:02:29;;;;;;;11.55;7.53;;;14.30;81.40;;;;;;5073621;28;20033;-72
2021/10/19 00:04:55;;;;;;;11.63;7.70;;;14.30;81.30;;;;;;5073436;28;20028;-72
2021/10/19 00:07:21;;;;;;;12.15;8.02;;;14.30;81.30;;;;;;5073624;28;20024;-72
2021/10/19 00:09:46;;;;;;;14.48;8.60;;;14.30;81.30;;;;;;5073241;28;20031;-72
2021/10/19 00:12:12;;;;;;;12.45;8.13;;;14.30;81.30;;;;;;5073587;28;20486;-72
2021/10/19 00:14:37;;;;;;;12.70;8.57;;;14.30;81.20;;;;;;5055600;28;20083;-72
2021/10/19 00:17:03;;;;;;;12.98;9.18;;;14.30;81.30;;;;;;5073292;28;20033;-71
2021/10/19 00:19:28;;;;;;;14.05;9.30;;;14.30;81.40;;;;;;5073022;28;20032;-72
2021/10/19 00:21:54;;;;;;;14.90;9.15;;;14.30;81.50;;;;;;5073367;28;20478;-71
2021/10/19 00:24:19;;;;;;;12.90;9.23;;;14.30;81.50;;;;;;5055251;28;20060;-72
2021/10/19 00:26:45;;;;;;;13.23;9.48;;;14.30;81.60;;;;;;5073145;28;20035;-72
2021/10/19 00:29:10;;;;;;;13.80;9.65;;;14.20;81.50;;;;;;5054965;28;20413;-71
2021/10/19 00:31:36;;;;;;;12.48;9.13;;;14.20;81.60;;;;;;5073160;28;20021;-71
2021/10/19 00:34:01;;;;;;;13.18;9.10;;;14.20;81.60;;;;;;5073190;28;20024;-72
2021/10/19 00:36:27;;;;;;;13.95;9.70;;;14.20;81.60;;;;;;5072939;28;20477;-72
2021/10/19 00:38:52;;;;;;;13.55;9.32;;;14.20;81.60;;;;;;5072724;28;20028;-71
2021/10/19 00:41:18;;;;;;;13.10;9.45;;;14.20;81.70;;;;;;5072813;28;20029;-71
2021/10/19 00:43:43;;;;;;;13.10;9.30;;;14.20;81.70;;;;;;5072856;28;20024;-72
2021/10/19 00:46:12;;;;;;;12.48;9.13;;;14.10;81.60;;;;;;5072774;28;20024;-72
2021/10/19 00:48:40;;;;;;;12.88;9.10;;;14.20;81.60;;;;;;5072253;28;20025;-72
2021/10/19 00:51:10;;;;;;;13.95;9.38;;;14.10;81.60;;;;;;5054723;28;20031;-73
2021/10/19 00:53:36;;;;;;;15.23;9.32;;;14.20;81.70;;;;;;5072821;28;20028;-71
2021/10/19 00:56:01;;;;;;;12.80;9.68;;;14.20;81.60;;;;;;5054691;28;20546;-72
2021/10/19 00:58:27;;;;;;;15.50;9.85;;;14.20;81.60;;;;;;5072296;28;20074;-72
2021/10/19 01:00:53;;;;;;;16.20;9.63;;;14.20;81.60;;;;;;5072231;28;20482;-71
2021/10/19 01:03:18;;;;;;;14.85;9.60;;;14.20;81.60;;;;;;5054561;28;20074;-72
2021/10/19 01:05:44;;;;;;;21.45;10.10;;;14.20;81.70;;;;;;5072409;28;20029;-71
2021/10/19 01:08:10;;;;;;;30.67;10.73;;;14.20;81.60;;;;;;5072290;28;20032;-71
2021/10/19 01:10:37;;;;;;;21.48;9.43;;;14.20;81.60;;;;;;5072161;28;20467;-71
2021/10/19 01:13:03;;;;;;;19.20;10.55;;;14.20;81.70;;;;;;5072357;28;20024;-71
2021/10/19 01:15:33;;;;;;;18.98;10.40;;;14.20;81.70;;;;;;5072189;28;20502;-71
2021/10/19 01:17:59;;;;;;;20.95;9.60;;;14.20;81.70;;;;;;5072168;28;20031;-71
2021/10/19 01:20:31;;;;;;;21.33;10.27;;;14.20;81.70;;;;;;5071831;28;20016;-72
2021/10/19 01:22:58;;;;;;;17.70;10.18;;;14.20;81.70;;;;;;5072147;28;20579;-71
2021/10/19 01:25:27;;;;;;;14.55;9.85;;;14.20;81.70;;;;;;5054259;28;20242;-72
2021/10/19 01:28:10;;;;;;;19.75;10.13;;;14.20;81.70;;;;;;5072056;28;20020;-71
2021/10/19 01:30:46;;;;;;;16.98;10.25;;;14.20;81.70;;;;;;5071667;28;20479;-72
2021/10/19 01:33:12;;;;;;;19.25;10.48;;;14.20;81.70;;;;;;5071912;28;20036;-71
2021/10/19 01:35:40;;;;;;;16.88;10.10;;;14.20;81.70;;;;;;5053971;28;20021;-72
2021/10/19 01:38:09;;;;;;;17.25;10.32;;;14.20;81.70;;;;;;5071986;28;20083;-71
2021/10/19 01:40:35;;;;;;;16.10;10.55;;;14.20;81.70;;;;;;5071631;28;20082;-71
2021/10/19 01:43:01;;;;;;;18.92;10.73;;;14.20;81.80;;;;;;5071944;28;20436;-71
2021/10/19 01:45:26;;;;;;;15.10;9.82;;;14.20;81.80;;;;;;5053875;28;20560;-71
2021/10/19 01:47:52;;;;;;;15.25;9.90;;;14.20;81.80;;;;;;5053870;28;20074;-71
2021/10/19 01:50:18;;;;;;;15.18;10.30;;;14.20;81.80;;;;;;5071644;28;20017;-71
2021/10/19 01:52:45;;;;;;;16.58;10.23;;;14.20;81.80;;;;;;5071850;28;20040;-71
2021/10/19 01:55:11;;;;;;;17.67;10.38;;;14.20;81.80;;;;;;5071919;28;20428;-73
2021/10/19 01:57:37;;;;;;;14.85;9.52;;;14.20;81.90;;;;;;5071732;28;20478;-72
2021/10/19 02:00:05;;;;;;;14.82;9.98;;;14.20;81.90;;;;;;5070910;28;20112;-72
2021/10/19 02:02:31;;;;;;;14.48;9.75;;;14.20;81.90;;;;;;5071805;28;20035;-72
2021/10/19 02:04:56;;;;;;;15.32;9.75;;;14.20;81.90;;;;;;5053775;28;20426;-70
2021/10/19 02:07:22;;;;;;;14.93;10.32;;;14.20;82.00;;;;;;5071573;28;20509;-71
2021/10/19 02:09:47;;;;;;;14.40;9.63;;;14.20;81.90;;;;;;5053295;28;20035;-72
2021/10/19 02:12:13;;;;;;;14.63;10.15;;;14.20;82.00;;;;;;5071717;28;20040;-71
2021/10/19 02:14:38;;;;;;;13.95;9.20;;;14.20;82.00;;;;;;5053547;28;20440;-71
2021/10/19 02:17:04;;;;;;;13.63;10.20;;;14.20;82.00;;;;;;5053629;28;20394;-72
2021/10/19 02:19:29;;;;;;;14.05;9.98;;;14.20;82.00;;;;;;5071201;28;20096;-73
2021/10/19 02:21:56;;;;;;;15.73;10.48;;;14.20;82.00;;;;;;5071539;28;20029;-72
2021/10/19 02:24:22;;;;;;;15.50;9.73;;;14.20;82.10;;;;;;5071362;28;20052;-71
2021/10/19 02:26:48;;;;;;;13.98;9.80;;;14.20;82.10;;;;;;5053524;28;20032;-71
2021/10/19 02:29:15;;;;;;;14.45;9.95;;;14.20;82.10;;;;;;5053267;28;20367;-71
2021/10/19 02:31:41;;;;;;;14.27;9.60;;;14.20;82.10;;;;;;5071408;28;20094;-71
2021/10/19 02:34:07;;;;;;;15.25;10.05;;;14.20;81.90;;;;;;5071319;28;20032;-72
2021/10/19 02:36:33;;;;;;;15.73;9.98;;;14.20;81.80;;;;;;5053316;28;20024;-71
2021/10/19 02:39:04;;;;;;;15.93;9.90;;;14.20;81.80;;;;;;5071059;28;20031;-72
2021/10/19 02:41:29;;;;;;;15.73;9.77;;;14.20;81.90;;;;;;5053366;28;20021;-72
2021/10/19 02:43:55;;;;;;;15.05;9.68;;;14.20;81.80;;;;;;5071324;28;20024;-72
2021/10/19 02:46:21;;;;;;;15.93;9.48;;;14.30;81.90;;;;;;5071330;28;20120;-71
2021/10/19 02:48:47;;;;;;;14.80;9.30;;;14.30;81.70;;;;;;5071023;28;20052;-72
2021/10/19 02:51:13;;;;;;;14.50;9.48;;;14.30;81.70;;;;;;5067765;28;20729;-71
2021/10/19 02:53:38;;;;;;;14.68;8.95;;;14.30;81.70;;;;;;5079368;28;20036;-71
2021/10/19 02:56:04;;;;;;;15.10;8.93;;;14.30;81.70;;;;;;5084991;28;20115;-72
2021/10/19 02:58:29;;;;;;;13.27;9.43;;;14.30;81.60;;;;;;5091203;28;20157;-72
2021/10/19 03:00:55;;;;;;;12.70;9.02;;;14.30;81.60;;;;;;5074395;28;20035;-72
2021/10/19 03:03:20;;;;;;;12.18;8.95;;;14.30;81.70;;;;;;5073084;28;20031;-72
2021/10/19 03:05:46;;;;;;;14.48;8.88;;;14.40;81.70;;;;;;5091051;28;20103;-72
2021/10/19 03:08:11;;;;;;;13.82;9.07;;;14.40;81.80;;;;;;5091044;28;20016;-72
2021/10/19 03:10:37;;;;;;;13.45;9.30;;;14.30;81.70;;;;;;5072913;28;20363;-72
2021/10/19 03:13:02;;;;;;;12.68;9.20;;;14.30;81.70;;;;;;5094497;28;20031;-72
2021/10/19 03:15:28;;;;;;;13.15;9.18;;;14.40;81.90;;;;;;5094748;28;20081;-72
2021/10/19 03:17:54;;;;;;;12.90;9.05;;;14.40;82.00;;;;;;5094810;28;20085;-72
2021/10/19 03:20:19;;;;;;;14.43;9.60;;;14.30;82.10;;;;;;5094183;28;20031;-72
2021/10/19 03:22:45;;;;;;;12.82;9.23;;;14.30;82.20;;;;;;5094628;28;20028;-71
2021/10/19 03:25:10;;;;;;;13.50;9.25;;;14.30;82.30;;;;;;5094597;28;20477;-71
2021/10/19 03:27:36;;;;;;;17.30;9.80;;;14.30;82.40;;;;;;5076261;28;20024;-72
2021/10/19 03:30:03;;;;;;;13.70;9.23;;;14.20;82.50;;;;;;5094175;28;20486;-72
2021/10/19 03:32:29;;;;;;;14.05;9.38;;;14.20;82.60;;;;;;5094415;28;20058;-72
2021/10/19 03:34:54;;;;;;;13.75;9.13;;;14.20;82.70;;;;;;5094310;28;20051;-72
2021/10/19 03:37:20;;;;;;;12.55;9.35;;;14.20;82.70;;;;;;5094263;28;20040;-72
2021/10/19 03:39:45;;;;;;;13.05;9.40;;;14.20;82.70;;;;;;5094092;28;20020;-72
2021/10/19 03:42:11;;;;;;;12.35;9.18;;;14.20;82.90;;;;;;5094306;28;20099;-72
2021/10/19 03:44:36;;;;;;;13.35;8.98;;;14.20;82.90;;;;;;5076147;28;20053;-73
2021/10/19 03:47:02;;;;;;;12.90;9.30;;;14.20;83.00;;;;;;5094276;28;20035;-72
2021/10/19 03:49:27;;;;;;;13.20;8.75;;;14.20;83.00;;;;;;5075483;28;20032;-72
2021/10/19 03:51:53;;;;;;;13.38;10.10;;;14.20;83.00;;;;;;5094035;28;20039;-72
2021/10/19 03:54:19;;;;;;;12.60;9.27;;;14.20;83.10;;;;;;5093986;28;20413;-72
2021/10/19 03:56:44;;;;;;;12.05;8.68;;;14.20;83.10;;;;;;5093933;28;20028;-72
2021/10/19 03:59:10;;;;;;;12.68;9.18;;;14.20;83.00;;;;;;5075534;28;20389;-71
2021/10/19 04:01:35;;;;;;;13.20;9.25;;;14.20;83.10;;;;;;5093842;28;20039;-71
2021/10/19 04:04:01;;;;;;;13.80;9.38;;;14.20;83.20;;;;;;5094207;28;20103;-72
2021/10/19 04:06:28;;;;;;;13.77;9.40;;;14.20;83.30;;;;;;5093735;28;20486;-72
2021/10/19 04:08:53;;;;;;;12.38;8.98;;;14.20;83.30;;;;;;5075027;28;20070;-72
2021/10/19 04:11:19;;;;;;;13.15;8.95;;;14.20;83.30;;;;;;5078932;28;20048;-72
2021/10/19 04:13:44;;;;;;;12.27;8.88;;;14.20;83.40;;;;;;5089406;28;20457;-72
2021/10/19 04:16:10;;;;;;;12.48;8.63;;;14.20;83.40;;;;;;5074628;28;20123;-71
2021/10/19 04:18:36;;;;;;;13.13;9.30;;;14.20;83.40;;;;;;5092902;28;20020;-72
2021/10/19 04:21:01;;;;;;;12.73;8.90;;;14.20;83.50;;;;;;5093678;28;20547;-73
2021/10/19 04:23:27;;;;;;;14.13;9.02;;;14.20;83.50;;;;;;5093196;28;20023;-72
2021/10/19 04:25:52;;;;;;;13.60;8.90;;;14.20;83.50;;;;;;5092684;28;20448;-72
2021/10/19 04:28:18;;;;;;;12.77;8.77;;;14.20;83.60;;;;;;5092266;28;20715;-72
2021/10/19 04:30:46;;;;;;;13.32;8.93;;;14.20;83.60;;;;;;5092276;28;20026;-73
2021/10/19 04:33:12;;;;;;;14.95;8.52;;;14.20;83.60;;;;;;5077072;28;20694;-72
2021/10/19 04:35:37;;;;;;;11.10;8.23;;;14.20;83.50;;;;;;5073367;28;20033;-73
2021/10/19 04:38:03;;;;;;;11.65;8.30;;;14.20;83.60;;;;;;5072930;28;20429;-73
2021/10/19 04:40:29;;;;;;;12.63;8.90;;;14.20;83.60;;;;;;5054350;28;20025;-73
2021/10/19 04:42:54;;;;;;;13.38;8.93;;;14.20;83.60;;;;;;5072680;28;20055;-73
2021/10/19 04:45:20;;;;;;;14.80;9.40;;;14.20;83.60;;;;;;5073088;28;20035;-74
2021/10/19 04:47:46;;;;;;;13.38;9.20;;;14.20;83.60;;;;;;5055546;28;20031;-73
2021/10/19 04:50:11;;;;;;;12.77;8.57;;;14.20;83.70;;;;;;5078291;28;20024;-74
2021/10/19 04:52:37;;;;;;;13.40;9.48;;;14.20;83.80;;;;;;5093255;28;20071;-74
2021/10/19 04:55:03;;;;;;;12.35;9.32;;;14.20;83.70;;;;;;5092944;28;20367;-73
2021/10/19 04:57:29;;;;;;;13.65;8.85;;;14.20;83.80;;;;;;5075075;28;20059;-73
2021/10/19 04:59:54;;;;;;;13.82;8.80;;;14.20;83.80;;;;;;5093004;28;20693;-73
2021/10/19 05:02:20;;;;;;;13.85;8.60;;;14.30;83.90;;;;;;5074983;28;20070;-75
2021/10/19 05:04:45;;;;;;;16.40;8.90;;;14.20;83.80;;;;;;5093118;28;20016;-76
2021/10/19 05:07:11;;;;;;;17.92;9.35;;;14.20;83.90;;;;;;5091543;28;20059;-74
2021/10/19 05:09:36;;;;;;;19.77;9.05;;;14.20;83.90;;;;;;5061140;28;20032;-74
2021/10/19 05:12:02;;;;;;;18.23;9.02;;;14.20;84.00;;;;;;5073040;28;20025;-73
2021/10/19 05:14:27;;;;;;;21.70;9.38;;;14.30;84.00;;;;;;5065838;28;20520;-74
2021/10/19 05:16:53;;;;;;;29.48;10.18;;;14.20;83.80;;;;;;5074483;28;20035;-71
2021/10/19 05:19:18;;;;;;;25.70;10.23;;;14.20;84.20;;;;;;5074028;28;20024;-72
2021/10/19 05:21:44;;;;;;;22.25;10.45;;;14.30;84.10;;;;;;5092575;28;20027;-73
2021/10/19 05:24:09;;;;;;;21.83;9.23;;;14.30;84.00;;;;;;5091518;28;20394;-72
2021/10/19 05:26:35;;;;;;;20.70;8.93;;;14.30;84.00;;;;;;5092412;28;20116;-73
2021/10/19 05:29:00;;;;;;;21.00;8.68;;;14.30;84.10;;;;;;5092137;28;20020;-73
2021/10/19 05:31:26;;;;;;;22.45;9.60;;;14.30;84.00;;;;;;5074270;28;20031;-72
2021/10/19 05:33:52;;;;;;;18.70;9.18;;;14.30;84.10;;;;;;5091546;28;20028;-76
2021/10/19 05:36:17;;;;;;;17.15;8.50;;;14.30;83.90;;;;;;5092266;28;20028;-72
2021/10/19 05:38:43;;;;;;;22.77;8.98;;;14.30;83.90;;;;;;5091621;28;20028;-74
2021/10/19 05:41:08;;;;;;;17.85;9.27;;;14.30;83.80;;;;;;5090317;28;20035;-73
2021/10/19 05:43:34;;;;;;;21.17;9.18;;;14.30;83.60;;;;;;5090110;28;20064;-72
2021/10/19 05:45:59;;;;;;;16.30;8.80;;;14.30;83.70;;;;;;5090099;28;20024;-73
2021/10/19 05:48:25;;;;;;;17.13;9.02;;;14.30;83.80;;;;;;5089867;28;20032;-73
2021/10/19 05:50:51;;;;;;;15.48;8.70;;;14.30;83.70;;;;;;5091069;28;20054;-73
2021/10/19 05:53:16;;;;;;;18.77;8.38;;;14.40;83.90;;;;;;5090962;28;20024;-73
2021/10/19 05:55:42;;;;;;;15.48;8.65;;;14.40;83.90;;;;;;5091635;28;20386;-73
2021/10/19 05:58:07;;;;;;;17.35;8.98;;;14.40;84.00;;;;;;5073764;28;20035;-72
2021/10/19 06:00:33;;;;;;;14.85;8.15;;;14.40;84.50;;;;;;5091375;28;20450;-73
2021/10/19 06:02:58;;;;;;;16.15;8.40;;;14.40;84.10;;;;;;5073744;28;20028;-73
2021/10/19 06:05:24;;;;;;;13.32;8.40;;;14.40;84.10;;;;;;5091791;28;20016;-73
2021/10/19 06:07:52;;;;;;;17.83;9.20;;;14.40;84.20;;;;;;5091728;28;20035;-72
2021/10/19 06:10:21;;;;;;;14.32;8.93;;;14.40;84.30;;;;;;5091437;28;20121;-72
2021/10/19 06:12:48;;;;;;;15.65;8.85;;;14.40;84.50;;;;;;5091765;28;20016;-72
2021/10/19 06:15:15;;;;;;;12.98;8.48;;;14.40;84.70;;;;;;5091679;28;20052;-72
2021/10/19 06:17:41;;;;;;;13.70;9.15;;;14.30;84.60;;;;;;5073475;28;20031;-72
2021/10/19 06:20:07;;;;;;;14.38;8.60;;;14.30;84.90;;;;;;5091337;28;20115;-73
2021/10/19 06:22:33;;;;;;;13.02;8.82;;;14.30;85.00;;;;;;5091743;28;20020;-73
2021/10/19 06:24:58;;;;;;;13.73;8.55;;;14.30;85.10;;;;;;5091617;28;20103;-72
2021/10/19 06:27:24;;;;;;;13.93;8.60;;;14.30;85.30;;;;;;5091684;28;20031;-72
2021/10/19 06:29:49;;;;;;;14.77;8.75;;;14.20;85.20;;;;;;5091096;28;20043;-72
2021/10/19 06:32:15;;;;;;;12.57;8.98;;;14.20;85.20;;;;;;5073329;28;20435;-72
2021/10/19 06:34:40;;;;;;;12.63;8.93;;;14.30;85.40;;;;;;5073435;28;20020;-73
2021/10/19 06:37:06;;;;;;;12.30;8.70;;;14.20;85.40;;;;;;5091612;28;20028;-73
2021/10/19 06:39:31;;;;;;;12.35;8.63;;;14.30;85.50;;;;;;5091474;28;20024;-74
2021/10/19 06:41:57;;;;;;;11.95;8.77;;;14.30;85.60;;;;;;5091891;28;20066;-73
2021/10/19 06:44:22;;;;;;;12.15;8.43;;;14.20;85.50;;;;;;5091827;28;20028;-73
2021/10/19 06:46:48;;;;;;;12.32;8.48;;;14.30;85.60;;;;;;5076260;28;20032;-73
2021/10/19 06:49:14;;;;;;;13.77;9.35;;;14.30;85.80;;;;;;5076737;28;20118;-74
2021/10/19 06:51:40;;;;;;;13.55;8.57;;;14.20;85.60;;;;;;5095313;28;20047;-73
2021/10/19 06:54:06;;;;;;;12.23;8.57;;;14.30;86.10;;;;;;5095203;28;20405;-73
2021/10/19 06:56:31;;;;;;;12.88;8.55;;;14.30;85.80;;;;;;5076844;28;20020;-73
2021/10/19 06:58:57;;;;;;;11.95;8.05;;;14.20;85.80;;;;;;5094622;28;20177;-73
2021/10/19 07:01:22;;;;;;;12.38;8.48;;;14.30;86.00;;;;;;5076631;28;20028;-73
2021/10/19 07:03:48;;;;;;;12.50;8.73;;;14.20;86.00;;;;;;5095009;28;20439;-72
2021/10/19 07:06:13;;;;;;;13.27;9.05;;;14.30;86.20;;;;;;5095027;28;20110;-73
2021/10/19 07:08:39;;;;;;;13.20;8.63;;;14.20;86.00;;;;;;5094613;28;20023;-74
2021/10/19 07:11:05;;;;;;;10.85;7.97;;;14.30;86.20;;;;;;5076809;28;20114;-73
2021/10/19 07:13:31;;;;;;;12.93;8.65;;;14.20;86.20;;;;;;5094752;28;20023;-73
2021/10/19 07:15:57;;;;;;;10.40;7.55;;;14.30;86.40;;;;;;5094549;28;20024;-73
2021/10/19 07:18:24;;;;;;;11.40;7.90;;;14.30;86.40;;;;;;5094483;28;20073;-73
2021/10/19 07:20:51;;;;;;;10.75;7.43;;;14.30;86.50;;;;;;5094659;28;20422;-73
2021/10/19 07:23:17;;;;;;;10.93;7.70;;;14.20;86.60;;;;;;5094701;28;20024;-73
2021/10/19 07:25:43;;;;;;;10.65;7.50;;;14.20;86.60;;;;;;5094694;28;20442;-73
2021/10/19 07:28:09;;;;;;;10.88;8.05;;;14.30;86.60;;;;;;5094405;28;20118;-73
2021/10/19 07:30:35;;;;;;;11.18;8.00;;;14.30;86.80;;;;;;5076101;28;20016;-73
2021/10/19 07:33:00;;;;;;;11.35;7.80;;;14.30;86.90;;;;;;5094469;28;20109;-73
2021/10/19 07:35:26;;;;;;;13.35;8.52;;;14.20;86.90;;;;;;5076507;28;20026;-72
2021/10/19 07:37:51;;;;;;;11.73;7.75;;;14.30;86.90;;;;;;5094264;28;20028;-73
2021/10/19 07:40:19;;;;;;;10.82;7.63;;;14.30;86.80;;;;;;5093972;28;20032;-73
2021/10/19 07:42:45;;;;;;;9.82;7.00;;;14.30;87.00;;;;;;5094212;28;20027;-74
2021/10/19 07:45:13;;;;;;;10.55;7.68;;;14.30;86.90;;;;;;5075981;28;20020;-73
2021/10/19 07:47:43;;;;;;;9.65;7.30;;;14.30;87.00;;;;;;5076140;28;20115;-72
2021/10/19 07:50:14;;;;;;;10.50;6.90;;;14.30;87.10;;;;;;5093661;28;20067;-73
2021/10/19 07:52:42;;;;;;;10.13;7.45;;;14.30;87.10;;;;;;5094301;28;20027;-73
2021/10/19 07:55:08;;;;;;;10.20;7.03;;;14.30;87.30;;;;;;5075803;28;20440;-73
2021/10/19 07:57:59;;;;;;;10.60;7.05;;;14.30;87.30;;;;;;5093151;28;20028;-73
2021/10/19 08:00:27;;;;;;;10.88;7.13;;;14.30;87.40;;;;;;5093493;28;20489;-73
2021/10/19 08:02:54;;;;;;;9.10;6.47;;;14.30;87.60;;;;;;5093890;28;20106;-73
2021/10/19 08:05:19;;;;;;;10.02;7.28;;;14.30;87.60;;;;;;5093793;28;20031;-72
2021/10/19 08:07:48;;;;;;;9.65;6.63;;;14.30;87.90;;;;;;5093760;28;20027;-73
2021/10/19 08:10:19;;;;;;;9.05;6.38;;;14.30;87.60;;;;;;5093547;28;20659;-72
2021/10/19 08:12:45;;;;;;;10.75;7.60;;;14.30;88.00;;;;;;5075580;28;20028;-73
2021/10/19 08:15:12;;;;;;;10.98;7.40;;;14.30;87.60;;;;;;5093525;28;20530;-72
2021/10/19 08:17:38;;;;;;;9.88;6.28;;;14.30;88.10;;;;;;5093571;28;20036;-73
2021/10/19 08:20:04;;;;;;;10.23;6.80;;;14.30;88.10;;;;;;5093217;28;20377;-72
2021/10/19 08:22:31;;;;;;;8.98;6.40;;;14.30;87.90;;;;;;5093419;28;20031;-73
2021/10/19 08:24:57;;;;;;;8.80;5.80;;;14.30;88.10;;;;;;5075228;28;20024;-72
2021/10/19 08:27:24;;;;;;;8.88;6.10;;;14.30;87.90;;;;;;5093682;28;20032;-72
2021/10/19 08:29:50;;;;;;;9.75;6.03;;;14.40;88.00;;;;;;5093016;28;20130;-73
2021/10/19 08:32:16;;;;;;;9.43;6.28;;;14.40;87.80;;;;;;5075240;28;20028;-73
2021/10/19 08:34:42;;;;;;;9.65;6.05;;;14.40;87.80;;;;;;5093175;28;20031;-73
2021/10/19 08:37:07;;;;;;;9.07;5.80;;;14.40;87.70;;;;;;5093027;28;20039;-73
2021/10/19 08:39:33;;;;;;;8.65;6.00;;;14.40;87.60;;;;;;5074674;28;20028;-72
2021/10/19 08:41:59;;;;;;;8.93;5.80;;;14.40;87.70;;;;;;5093168;28;20028;-72
2021/10/19 08:44:25;;;;;;;8.93;5.90;;;14.50;87.80;;;;;;5074850;28;20024;-72
2021/10/19 08:46:50;;;;;;;8.60;5.50;;;14.40;87.70;;;;;;5074926;28;20070;-72
2021/10/19 08:49:16;;;;;;;9.30;5.53;;;14.50;87.90;;;;;;5092609;28;20024;-73
2021/10/19 08:51:42;;;;;;;8.20;5.50;;;14.50;87.80;;;;;;5074691;28;20489;-74
2021/10/19 08:54:08;;;;;;;8.32;5.38;;;14.50;88.00;;;;;;5092858;28;20121;-73
2021/10/19 08:56:40;;;;;;;8.23;5.00;;;14.50;88.30;;;;;;5074622;28;20023;-73
2021/10/19 08:59:07;;;;;;;8.52;5.35;;;14.40;88.50;;;;;;5092479;28;20020;-74
2021/10/19 09:01:37;;;;;;;9.15;6.00;;;14.40;88.40;;;;;;5093922;28;20627;-73
2021/10/19 09:04:08;;;;;;;7.72;5.25;;;14.40;88.80;;;;;;5092598;28;20032;-73
2021/10/19 09:06:36;;;;;;;9.18;5.50;;;14.40;88.90;;;;;;5074525;28;20024;-72
2021/10/19 09:09:10;;;;;;;8.48;5.47;;;14.40;88.90;;;;;;5092176;28;20385;-73
2021/10/19 09:11:47;;;;;;;9.75;5.13;;;14.40;89.00;;;;;;5092525;28;20489;-72
2021/10/19 09:14:14;;;;;;;8.63;5.57;;;14.30;89.30;;;;;;5092492;28;20059;-72
2021/10/19 09:16:48;;;;;;;8.32;5.38;;;14.40;89.60;;;;;;5092849;28;20475;-73
2021/10/19 09:19:16;;;;;;;8.65;5.10;;;14.30;89.50;;;;;;5074216;28;20020;-73
2021/10/19 09:21:45;;;;;;;7.22;4.82;;;14.30;89.50;;;;;;5074271;28;20109;-72
2021/10/19 09:24:19;;;;;;;7.80;4.90;;;14.30;89.50;;;;;;5074181;28;20051;-73
2021/10/19 09:26:59;;;;;;;8.15;5.15;;;14.30;89.80;;;;;;5092287;28;20504;-73
2021/10/19 09:29:27;;;;;;;8.23;5.00;;;14.30;89.70;;;;;;5091985;28;20031;-73
2021/10/19 09:31:55;;;;;;;7.10;4.38;;;14.30;89.80;;;;;;5092272;28;20064;-72
2021/10/19 09:34:21;;;;;;;9.85;5.35;;;14.30;89.80;;;;;;5074065;28;20076;-72
2021/10/19 09:36:51;;;;;;;8.00;4.93;;;14.30;89.70;;;;;;5092195;28;20044;-73
2021/10/19 09:39:36;;;;;;;8.23;5.05;;;14.30;89.80;;;;;;5073491;28;20070;-72
2021/10/19 09:42:04;;;;;;;6.80;4.40;;;14.30;89.90;;;;;;5092090;28;20023;-73
2021/10/19 09:44:30;;;;;;;7.60;4.40;;;14.30;89.70;;;;;;5074067;28;20027;-72
2021/10/19 09:46:57;;;;;;;6.53;4.18;;;14.40;89.70;;;;;;5073889;28;20024;-73
2021/10/19 09:49:23;;;;;;;7.60;4.63;;;14.30;89.50;;;;;;5091679;28;20494;-73
2021/10/19 09:51:49;;;;;;;7.68;4.78;;;14.40;89.90;;;;;;5092002;28;20031;-73
2021/10/19 09:54:20;;;;;;;7.85;4.55;;;14.40;89.80;;;;;;5091858;28;20024;-73
2021/10/19 09:56:46;;;;;;;7.70;4.60;;;14.30;89.80;;;;;;5092119;28;20020;-73
2021/10/19 09:59:14;;;;;;;7.80;4.43;;;14.30;89.70;;;;;;5091575;28;20545;-73
2021/10/19 10:01:40;;;;;;;7.45;4.00;;;14.30;89.90;;;;;;5073610;28;20031;-73
2021/10/19 10:04:07;;;;;;;7.35;4.40;;;14.40;89.80;;;;;;5091851;28;20070;-73
2021/10/19 10:06:33;;;;;;;6.55;4.10;;;14.30;89.90;;;;;;5091736;28;20020;-72
2021/10/19 10:09:00;;;;;;;6.90;4.07;;;14.40;90.00;;;;;;5073465;28;20485;-74
2021/10/19 10:11:26;;;;;;;7.78;4.32;;;14.40;90.00;;;;;;5073505;28;20032;-72
2021/10/19 10:13:55;;;;;;;7.30;4.00;;;14.30;89.70;;;;;;5091791;28;20024;-74
2021/10/19 10:16:21;;;;;;;6.60;3.85;;;14.40;89.80;;;;;;5091549;28;20028;-73
2021/10/19 10:18:46;;;;;;;6.07;3.50;;;14.30;89.70;;;;;;5073422;28;20027;-73
2021/10/19 10:21:17;;;;;;;6.45;3.85;;;14.40;90.10;;;;;;5075729;28;20024;-74
2021/10/19 10:23:43;;;;;;;6.50;3.60;;;14.40;89.90;;;;;;5095805;28;20020;-73
2021/10/19 10:26:21;;;;;;;6.63;4.03;;;14.40;89.90;;;;;;5077620;28;20504;-73
2021/10/19 10:28:46;;;;;;;6.88;4.15;;;14.40;89.80;;;;;;5077304;28;20130;-73
2021/10/19 10:31:23;;;;;;;6.28;3.65;;;14.40;89.90;;;;;;5095564;28;20099;-72
2021/10/19 10:34:04;;;;;;;6.82;3.90;;;14.40;89.80;;;;;;5095623;28;20397;-73
2021/10/19 10:36:42;;;;;;;6.10;3.70;;;14.40;89.70;;;;;;5095924;28;20085;-74
2021/10/19 10:39:08;;;;;;;5.95;3.50;;;14.40;89.90;;;;;;5095339;28;20029;-73
2021/10/19 10:41:44;;;;;;;6.45;3.80;;;14.40;89.90;;;;;;5095363;28;20111;-73
2021/10/19 10:44:12;;;;;;;5.88;3.70;;;14.40;89.90;;;;;;5095690;28;20028;-73
2021/10/19 10:46:40;;;;;;;6.32;3.95;;;14.40;90.00;;;;;;5077149;28;20555;-73
2021/10/19 10:49:11;;;;;;;6.30;3.65;;;14.40;89.90;;;;;;5094963;28;20398;-73
2021/10/19 10:51:38;;;;;;;6.38;3.50;;;14.40;89.90;;;;;;5095519;28;20326;-73
2021/10/19 10:54:04;;;;;;;6.57;3.72;;;14.40;90.00;;;;;;5095272;28;20035;-74
2021/10/19 10:56:48;;;;;;;5.85;3.70;;;14.40;89.80;;;;;;5095070;28;20028;-74
2021/10/19 10:59:27;;;;;;;5.85;3.13;;;14.40;89.90;;;;;;5094733;28;20461;-73
2021/10/19 11:01:58;;;;;;;5.93;3.33;;;14.40;90.00;;;;;;5094997;28;20028;-73
2021/10/19 11:04:24;;;;;;;6.35;3.35;;;14.40;90.00;;;;;;5095043;28;20078;-74
2021/10/19 11:06:50;;;;;;;5.55;2.90;;;14.40;89.80;;;;;;5076721;28;20479;-73
2021/10/19 11:09:16;;;;;;;5.90;3.45;;;14.40;90.10;;;;;;5094613;28;20419;-73
2021/10/19 11:11:45;;;;;;;5.18;2.85;;;14.40;89.90;;;;;;5094938;28;20085;-73
2021/10/19 11:14:12;;;;;;;5.20;2.85;;;14.50;90.20;;;;;;5095024;28;20027;-73
2021/10/19 11:16:50;;;;;;;5.40;2.97;;;14.50;90.30;;;;;;5094809;28;20032;-73
2021/10/19 11:19:19;;;;;;;5.05;2.88;;;14.50;90.30;;;;;;5094414;28;20016;-73
2021/10/19 11:21:46;;;;;;;5.22;3.00;;;14.50;90.30;;;;;;5094646;28;20047;-73
2021/10/19 11:24:13;;;;;;;6.40;2.72;;;14.50;90.30;;;;;;5094603;28;20020;-73
2021/10/19 11:26:40;;;;;;;6.00;2.95;;;14.50;90.10;;;;;;5094662;28;20024;-72
2021/10/19 11:29:06;;;;;;;4.85;2.67;;;14.60;90.20;;;;;;5094317;28;20558;-73
2021/10/19 11:31:33;;;;;;;6.00;2.85;;;14.60;90.20;;;;;;5093633;28;20035;-73
2021/10/19 11:33:59;;;;;;;4.60;2.60;;;14.60;90.20;;;;;;5093883;28;20179;-73
2021/10/19 11:36:26;;;;;;;4.88;2.92;;;14.60;90.20;;;;;;5094462;28;20028;-73
2021/10/19 11:38:54;;;;;;;5.60;2.85;;;14.60;90.20;;;;;;5094103;28;20016;-73
2021/10/19 11:41:26;;;;;;;4.47;2.50;;;14.60;90.20;;;;;;5076050;28;20085;-73
2021/10/19 11:43:53;;;;;;;;;;;14.60;90.20;;;;;;5094785;28;20035;-72
2021/10/19 11:46:22;;;;;;;4.90;2.65;;;14.50;90.30;;;;;;5076137;28;19904;-73
2021/10/19 11:48:49;;;;;;;5.72;2.65;;;14.50;90.50;;;;;;5094491;28;20077;-73
2021/10/19 11:51:16;;;;;;;5.25;2.92;;;14.50;90.60;;;;;;5076042;28;20397;-72
2021/10/19 11:53:46;;;;;;;4.47;2.60;;;14.50;90.70;;;;;;5075896;28;20020;-73
2021/10/19 11:56:15;;;;;;;7.60;2.80;;;14.50;90.70;;;;;;5094004;28;20024;-72
2021/10/19 11:58:55;;;;;;;4.88;2.50;;;14.50;90.70;;;;;;5093657;28;20016;-73
2021/10/19 12:01:22;;;;;;;4.72;2.60;;;14.50;90.70;;;;;;5075632;28;20032;-72
2021/10/19 12:03:58;;;;;;;5.57;2.90;;;14.50;90.70;;;;;;5075805;28;20016;-72
2021/10/19 12:06:25;;;;;;;5.57;2.92;;;14.50;90.80;;;;;;5093845;28;20032;-73
2021/10/19 12:08:51;;;;;;;4.38;2.55;;;14.50;90.70;;;;;;5075283;28;20024;-74
2021/10/19 12:11:20;;;;;;;5.20;2.80;;;14.40;90.70;;;;;;5093687;28;20063;-72
2021/10/19 12:13:54;;;;;;;5.10;2.65;;;14.50;90.70;;;;;;5075719;28;20378;-72
2021/10/19 12:16:24;;;;;;;3.92;2.38;;;14.40;90.70;;;;;;5093628;28;20024;-72
2021/10/19 12:18:50;;;;;;;4.85;2.60;;;14.40;90.50;;;;;;5093457;28;20056;-72
2021/10/19 12:21:15;;;;;;;4.63;2.17;;;14.50;90.50;;;;;;5093417;28;20055;-73
2021/10/19 12:24:10;;;;;;;4.28;2.20;;;14.50;90.60;;;;;;5093533;28;20024;-72
2021/10/19 12:26:37;;;;;;;5.43;2.50;;;14.40;90.50;;;;;;5071931;28;20040;-72
2021/10/19 12:29:05;;;;;;;3.38;2.13;;;14.50;90.70;;;;;;5093166;28;20084;-73
2021/10/19 12:31:32;;;;;;;4.60;2.30;;;14.50;90.50;;;;;;5093266;28;20524;-73
2021/10/19 12:34:03;;;;;;;4.28;2.40;;;14.50;90.60;;;;;;5093340;28;20047;-72
2021/10/19 12:36:37;;;;;;;4.70;2.40;;;14.50;90.40;;;;;;5093573;28;20086;-73
2021/10/19 12:39:13;;;;;;;4.75;2.25;;;14.50;90.40;;;;;;5074841;28;20084;-74